KDVT/DVT METAR and TAF weather

Enter ICAO airport designator
Station Type Date Time Source
KDVT METAR 2020/09/28 08:53 UTC NOAA

KDVT 280853Z AUTO 05003KT 10SM CLR 24/01 A2988 RMK AO2 SLP090 T02440011 53004


Station Type Date Time Source
KDVT Decoded METAR 2020/09/28 08:53 UTC NOAA

PHOENIX-DEER VALLEY MUN, AZ, United States (KDVT) 33-41N 112-04W 443M
Sep 28, 2020 - 04:53 AM EDT / 2020.09.28 0853 UTC
Wind: from the NE (050 degrees) at 3 MPH (3 KT):0
Visibility: 10 mile(s):0
Sky conditions: clear
Temperature: 75.9 F (24.4 C)
Dew Point: 34.0 F (1.1 C)
Relative Humidity: 21%
Pressure (altimeter): 29.88 in. Hg (1011 hPa)
Pressure tendency: 0.01 inches (0.4 hPa) higher than three hours ago
ob: KDVT 280853Z AUTO 05003KT 10SM CLR 24/01 A2988 RMK AO2 SLP090 T02440011 53004
cycle: 9

Station Type Date Time Source
KDVT TAF 2020/09/28 06:30 UTC NOAA

TAF KDVT 280527Z 2806/2906 VRB04KT P6SM SKC
FM281800 12011KT P6SM SKC
FM282100 12006KT P6SM SKC
FM290200 VRB04KT P6SM SKC
AMD NOT SKED

Example: see airport list